createdAt,value
2019-03-22T05:16:38.539Z,4.8
2019-03-22T05:17:41.538Z,4.8
2019-03-22T05:18:44.529Z,4.8
2019-03-22T05:19:47.539Z,4.8
2019-03-22T05:20:50.554Z,4.8
2019-03-22T05:21:53.533Z,4.8
2019-03-22T05:22:56.543Z,4.8
2019-03-22T05:23:59.545Z,4.8
2019-03-22T05:25:02.548Z,4.7
2019-03-22T05:26:05.540Z,4.8
2019-03-22T05:27:08.529Z,4.6
2019-03-22T05:28:11.545Z,4.7
2019-03-22T05:29:14.615Z,4.6
2019-03-22T05:30:17.539Z,4.7
2019-03-22T05:31:20.546Z,4.7
2019-03-22T05:32:23.537Z,4.6
2019-03-22T05:33:26.535Z,4.6
2019-03-22T05:34:29.551Z,4.7
2019-03-22T05:35:32.538Z,4.6
2019-03-22T05:36:35.541Z,4.6
2019-03-22T05:37:38.549Z,4.5
2019-03-22T05:38:41.546Z,4.6
2019-03-22T05:39:44.552Z,4.6
2019-03-22T05:40:47.562Z,4.6
2019-03-22T05:41:50.556Z,4.6
2019-03-22T05:42:53.549Z,4.7
2019-03-22T05:43:56.534Z,4.6
2019-03-22T05:44:59.544Z,4.6
2019-03-22T05:46:02.545Z,4.7
2019-03-22T05:47:05.558Z,4.6
2019-03-22T05:48:08.555Z,4.7
2019-03-22T05:49:11.548Z,4.7
2019-03-22T05:50:14.555Z,4.6
2019-03-22T05:51:17.597Z,4.6
2019-03-22T05:52:20.539Z,4.6
2019-03-22T05:53:23.548Z,4.7
2019-03-22T05:54:26.540Z,4.7
2019-03-22T05:55:29.546Z,4.6
2019-03-22T05:56:32.547Z,4.6
2019-03-22T05:57:35.549Z,4.6
2019-03-22T05:58:38.556Z,4.7
2019-03-22T05:59:42.884Z,4.6
2019-03-22T06:00:44.551Z,4.6
2019-03-22T06:01:47.545Z,4.6
2019-03-22T06:02:50.559Z,4.6
2019-03-22T06:03:53.551Z,4.6
2019-03-22T06:04:56.554Z,4.6
2019-03-22T06:05:59.536Z,4.6
2019-03-22T06:07:02.550Z,4.6
2019-03-22T06:08:05.563Z,4.7
2019-03-22T06:09:08.550Z,4.6
2019-03-22T06:10:11.560Z,4.6
2019-03-22T06:11:14.560Z,4.6
2019-03-22T06:12:17.534Z,4.6
2019-03-22T06:13:20.567Z,4.7
2019-03-22T06:14:23.550Z,4.5
2019-03-22T06:15:26.552Z,4.7
2019-03-22T06:16:29.559Z,4.6
2019-03-22T06:17:32.550Z,4.5
2019-03-22T06:18:35.541Z,4.6
2019-03-22T06:19:38.546Z,4.7
2019-03-22T06:20:41.544Z,4.6
2019-03-22T06:21:44.549Z,4.5
2019-03-22T06:22:47.556Z,4.6
2019-03-22T06:23:50.584Z,4.6
2019-03-22T06:24:53.604Z,4.6
2019-03-22T06:25:56.546Z,4.6
2019-03-22T06:26:59.558Z,4.6
2019-03-22T06:28:02.552Z,4.6
2019-03-22T06:29:05.584Z,4.7
2019-03-22T06:30:08.541Z,4.6
2019-03-22T06:31:11.564Z,4.6
2019-03-22T06:32:14.559Z,4.8
2019-03-22T06:33:17.555Z,4.7
2019-03-22T06:34:20.555Z,4.7
2019-03-22T06:35:23.561Z,4.7
2019-03-22T06:36:26.594Z,4.7
2019-03-22T06:37:29.555Z,4.8
2019-03-22T06:38:33.555Z,4.8
2019-03-22T06:39:36.550Z,4.8
2019-03-22T06:40:39.562Z,4.8
2019-03-22T06:41:42.548Z,4.7
2019-03-22T06:42:45.558Z,4.8
2019-03-22T06:43:48.557Z,4.8
2019-03-22T06:44:51.546Z,4.8
2019-03-22T06:45:54.583Z,4.8
2019-03-22T06:46:57.573Z,4.9
2019-03-22T06:48:00.567Z,4.9
2019-03-22T06:49:03.562Z,4.9
2019-03-22T06:50:06.546Z,4.8
2019-03-22T06:51:09.564Z,4.9
2019-03-22T06:52:12.556Z,4.8
2019-03-22T06:53:15.562Z,4.9
2019-03-22T06:54:30.554Z,5.0
2019-03-22T06:55:21.567Z,5.1
2019-03-22T06:56:24.571Z,5.2
2019-03-22T06:57:27.557Z,5.4
2019-03-22T06:58:30.556Z,5.6
2019-03-22T06:59:33.562Z,5.8
2019-03-22T07:00:36.570Z,6.1
2019-03-22T07:01:39.555Z,6.5
2019-03-22T07:02:42.568Z,6.7
2019-03-22T07:03:45.555Z,6.9
2019-03-22T07:04:48.560Z,7.1
2019-03-22T07:05:51.567Z,7.4
2019-03-22T07:06:54.567Z,7.7
2019-03-22T07:07:57.572Z,8.0
2019-03-22T07:09:00.562Z,8.1
2019-03-22T07:10:03.560Z,8.3
2019-03-22T07:11:06.564Z,8.5
2019-03-22T07:12:09.570Z,8.6
2019-03-22T07:13:12.555Z,8.7
2019-03-22T07:14:15.567Z,8.7
2019-03-22T07:15:18.572Z,8.9
2019-03-22T07:16:21.571Z,9.0
2019-03-22T07:17:24.570Z,9.1
2019-03-22T07:18:27.623Z,9.2
2019-03-22T07:19:30.565Z,9.3
2019-03-22T07:20:33.589Z,9.4
2019-03-22T07:21:36.565Z,9.5
2019-03-22T07:22:39.566Z,9.5
2019-03-22T07:23:42.568Z,9.5
2019-03-22T07:24:45.569Z,9.7
2019-03-22T07:25:48.576Z,9.8
2019-03-22T07:26:51.558Z,9.8
2019-03-22T07:27:54.557Z,9.8
2019-03-22T07:28:57.561Z,9.9
2019-03-22T07:30:00.570Z,9.9
2019-03-22T07:31:03.576Z,9.9
2019-03-22T07:32:06.573Z,10.0
2019-03-22T07:33:09.572Z,9.9
2019-03-22T07:34:12.576Z,10.1
2019-03-22T07:35:15.572Z,10.1
2019-03-22T07:36:18.571Z,10.1
2019-03-22T07:37:21.582Z,10.1
2019-03-22T07:38:24.567Z,10.3
2019-03-22T07:39:27.568Z,10.5
2019-03-22T07:40:30.576Z,10.7
2019-03-22T07:41:33.581Z,10.8
2019-03-22T07:42:36.569Z,10.6
2019-03-22T07:43:39.578Z,10.6
2019-03-22T07:44:42.572Z,10.8
2019-03-22T07:45:45.586Z,10.8
2019-03-22T07:46:48.638Z,10.8
2019-03-22T07:47:51.591Z,11.0
2019-03-22T07:48:54.578Z,11.0
2019-03-22T07:49:57.570Z,11.1
2019-03-22T07:51:00.581Z,11.1
2019-03-22T07:52:03.576Z,11.1
2019-03-22T07:53:06.586Z,11.2
2019-03-22T07:54:09.575Z,11.3
2019-03-22T07:55:12.580Z,11.4
2019-03-22T07:56:15.586Z,11.4
2019-03-22T07:57:18.682Z,11.5
2019-03-22T07:58:21.588Z,11.5
2019-03-22T07:59:24.588Z,11.6
2019-03-22T08:00:30.970Z,11.7
2019-03-22T08:01:30.582Z,11.6
2019-03-22T08:02:33.577Z,11.6
2019-03-22T08:03:36.602Z,11.7
2019-03-22T08:04:39.592Z,11.8
2019-03-22T08:05:51.057Z,11.9
2019-03-22T08:06:45.846Z,12.0
2019-03-22T08:07:49.083Z,12.1
2019-03-22T08:08:52.083Z,12.3
2019-03-22T08:09:55.192Z,12.4
2019-03-22T08:10:58.077Z,12.5
2019-03-22T08:12:01.077Z,12.6
2019-03-22T08:13:04.145Z,12.6
2019-03-22T08:14:07.088Z,12.5
2019-03-22T08:15:10.079Z,12.6
2019-03-22T08:16:13.078Z,12.6
2019-03-22T08:17:16.127Z,12.8
2019-03-22T08:18:19.096Z,12.9
2019-03-22T08:19:22.092Z,13.1
2019-03-22T08:20:25.128Z,13.1
2019-03-22T08:21:28.085Z,13.0
2019-03-22T08:22:31.083Z,12.9
2019-03-22T08:23:34.226Z,12.9
2019-03-22T08:24:37.093Z,12.9
2019-03-22T08:25:40.128Z,12.9
2019-03-22T08:26:43.096Z,12.9
2019-03-22T08:27:46.099Z,12.9
2019-03-22T08:28:49.098Z,13.0
2019-03-22T08:29:52.094Z,13.1
2019-03-22T08:30:55.088Z,13.0
2019-03-22T08:31:58.100Z,13.1
2019-03-22T08:33:01.128Z,12.9
2019-03-22T08:34:04.102Z,12.9
2019-03-22T08:35:07.099Z,12.7
2019-03-22T08:36:10.181Z,12.8
2019-03-22T08:37:13.129Z,12.7
2019-03-22T08:38:17.546Z,12.8
2019-03-22T08:39:19.103Z,13.0
2019-03-22T08:40:22.088Z,13.1
2019-03-22T08:41:25.116Z,13.3
2019-03-22T08:42:28.110Z,13.4
2019-03-22T08:43:31.097Z,13.5
2019-03-22T08:44:34.110Z,13.6
2019-03-22T08:45:37.106Z,13.7
2019-03-22T08:46:40.132Z,13.8
2019-03-22T08:47:43.136Z,13.8
2019-03-22T08:48:46.132Z,14.0
2019-03-22T08:49:49.228Z,14.2
2019-03-22T08:50:53.110Z,14.3
2019-03-22T08:51:56.106Z,14.4
2019-03-22T08:52:59.107Z,14.3
2019-03-22T08:54:02.142Z,14.3
2019-03-22T08:55:05.113Z,14.2
2019-03-22T08:56:08.129Z,14.2
2019-03-22T08:57:11.117Z,14.3
2019-03-22T08:58:14.129Z,14.3
2019-03-22T08:59:17.269Z,14.4
2019-03-22T09:00:19.604Z,14.4
2019-03-22T09:01:22.643Z,14.5
2019-03-22T09:02:25.619Z,14.5
2019-03-22T09:03:28.638Z,14.5
2019-03-22T09:04:31.628Z,14.6
2019-03-22T09:05:34.667Z,14.7
2019-03-22T09:06:37.652Z,14.8
2019-03-22T09:07:40.615Z,14.9
2019-03-22T09:08:43.615Z,14.9
2019-03-22T09:09:46.660Z,14.9
2019-03-22T09:10:49.608Z,15.0
2019-03-22T09:11:52.632Z,15.0
2019-03-22T09:12:55.612Z,15.1
2019-03-22T09:13:58.628Z,15.1
2019-03-22T09:15:01.700Z,15.3
2019-03-22T09:16:04.620Z,15.4
2019-03-22T09:17:07.605Z,15.4
2019-03-22T09:18:10.609Z,15.4
2019-03-22T09:19:13.609Z,15.5
2019-03-22T09:20:16.619Z,15.5
2019-03-22T09:21:19.695Z,15.7
2019-03-22T09:22:22.638Z,15.6
2019-03-22T09:23:25.614Z,15.9
2019-03-22T09:24:38.499Z,15.9
2019-03-22T09:25:31.608Z,16.0
2019-03-22T09:26:46.840Z,15.8
2019-03-22T09:27:37.620Z,15.9
2019-03-22T09:28:40.619Z,15.9
2019-03-22T09:29:43.629Z,16.0
2019-03-22T09:30:46.662Z,15.9
2019-03-22T09:31:49.623Z,16.0
2019-03-22T09:32:52.617Z,16.3
2019-03-22T09:33:55.628Z,16.6
2019-03-22T09:34:59.766Z,16.8
2019-03-22T09:36:01.660Z,17.2
2019-03-22T09:37:04.638Z,17.4
2019-03-22T09:38:12.728Z,17.4
2019-03-22T09:39:10.627Z,17.4
2019-03-22T09:40:13.653Z,17.3
2019-03-22T09:41:16.630Z,17.1
2019-03-22T09:42:19.629Z,17.3
2019-03-22T09:43:22.674Z,17.3
2019-03-22T09:44:28.077Z,17.2
2019-03-22T09:45:28.649Z,17.1
2019-03-22T09:46:31.674Z,17.1
2019-03-22T09:47:34.629Z,17.1
2019-03-22T09:48:38.559Z,17.1
2019-03-22T09:49:42.465Z,17.1
2019-03-22T09:50:46.687Z,17.0
2019-03-22T09:51:49.640Z,17.0
2019-03-22T09:52:52.653Z,17.1
2019-03-22T09:53:55.634Z,17.2
2019-03-22T09:55:07.740Z,17.3
2019-03-22T09:56:01.766Z,17.2
2019-03-22T09:57:04.648Z,17.3
2019-03-22T09:58:07.627Z,17.5
2019-03-22T09:59:10.639Z,17.6
2019-03-22T10:00:13.656Z,17.8
2019-03-22T10:01:23.461Z,17.7
2019-03-22T10:02:19.656Z,17.8
2019-03-22T10:03:22.641Z,17.8
2019-03-22T10:04:25.655Z,17.8
2019-03-22T10:05:28.633Z,17.9
2019-03-22T10:06:31.697Z,18.1
2019-03-22T10:07:34.679Z,18.1
2019-03-22T10:08:37.643Z,18.0
2019-03-22T10:09:40.667Z,17.9
2019-03-22T10:10:43.640Z,17.7
2019-03-22T10:11:46.656Z,17.7
2019-03-22T10:12:49.638Z,17.7
2019-03-22T10:13:52.636Z,17.8
2019-03-22T10:14:55.651Z,17.9
2019-03-22T10:15:58.692Z,18.0
2019-03-22T10:17:01.674Z,17.8
2019-03-22T10:18:04.648Z,17.7
2019-03-22T10:19:07.678Z,17.6
2019-03-22T10:20:10.645Z,17.5
2019-03-22T10:21:22.259Z,17.5
2019-03-22T10:22:16.747Z,17.6
2019-03-22T10:23:22.230Z,17.8
2019-03-22T10:24:22.789Z,17.8
2019-03-22T10:25:25.695Z,17.7
2019-03-22T10:26:28.658Z,17.7
2019-03-22T10:27:31.868Z,17.8
2019-03-22T10:28:34.930Z,17.9
2019-03-22T10:29:38.151Z,18.1
2019-03-22T10:30:41.242Z,18.3
2019-03-22T10:31:44.209Z,18.3
2019-03-22T10:32:47.215Z,18.5
2019-03-22T10:33:50.190Z,18.5
2019-03-22T10:34:53.147Z,18.5
2019-03-22T10:35:56.158Z,18.7
2019-03-22T10:36:59.148Z,18.7
2019-03-22T10:38:04.819Z,18.9
2019-03-22T10:39:05.145Z,18.9
2019-03-22T10:40:08.206Z,19.0
2019-03-22T10:41:11.156Z,19.0
2019-03-22T10:42:14.166Z,19.0
2019-03-22T10:43:17.216Z,18.9
2019-03-22T10:44:20.148Z,19.0
2019-03-22T10:45:23.187Z,19.0
2019-03-22T10:46:26.160Z,19.1
2019-03-22T10:47:29.159Z,19.2
2019-03-22T10:48:32.161Z,19.0
2019-03-22T10:49:35.160Z,19.1
2019-03-22T10:50:38.203Z,19.3
2019-03-22T10:51:41.181Z,19.3
2019-03-22T10:52:44.222Z,19.5
2019-03-22T10:53:47.166Z,19.5
2019-03-22T10:54:50.158Z,19.4
2019-03-22T10:55:53.149Z,19.3
2019-03-22T10:56:56.171Z,19.2
2019-03-22T10:57:59.175Z,19.1
2019-03-22T10:59:02.196Z,19.0
2019-03-22T11:00:05.171Z,19.1
2019-03-22T11:01:08.361Z,19.2
2019-03-22T11:02:11.166Z,19.3
2019-03-22T11:03:14.162Z,19.4
2019-03-22T11:04:17.174Z,19.4
2019-03-22T11:05:20.166Z,19.5
2019-03-22T11:06:26.309Z,19.4
2019-03-22T11:07:26.160Z,19.3
2019-03-22T11:08:29.179Z,19.4
2019-03-22T11:09:32.215Z,19.3
2019-03-22T11:10:35.301Z,19.2
2019-03-22T11:11:38.169Z,19.3
2019-03-22T11:12:41.160Z,19.2
2019-03-22T11:13:44.169Z,19.1
2019-03-22T11:15:25.130Z,19.0
2019-03-22T11:16:28.070Z,19.0
2019-03-22T11:17:31.070Z,19.0
2019-03-22T11:18:37.584Z,19.1
2019-03-22T11:19:37.060Z,19.2
2019-03-22T11:20:40.071Z,19.2
2019-03-22T11:21:43.075Z,19.2
2019-03-22T11:22:46.069Z,19.3
2019-03-22T11:23:49.080Z,19.2
2019-03-22T11:24:52.060Z,19.4
2019-03-22T11:26:03.823Z,19.4
2019-03-22T11:26:58.060Z,19.3
2019-03-22T11:28:01.086Z,19.4
2019-03-22T11:29:04.089Z,19.4
2019-03-22T11:30:07.072Z,19.4
2019-03-22T11:31:10.080Z,19.3
2019-03-22T11:32:13.124Z,19.5
2019-03-22T11:33:16.067Z,19.5
2019-03-22T11:34:19.081Z,19.5
2019-03-22T11:35:22.073Z,19.5
2019-03-22T11:36:25.079Z,19.6
2019-03-22T11:37:28.085Z,19.7
2019-03-22T11:38:31.080Z,19.9
2019-03-22T11:39:34.093Z,20.1
2019-03-22T11:40:37.066Z,20.2
2019-03-22T11:41:40.075Z,20.3
2019-03-22T11:42:43.120Z,20.4
2019-03-22T11:43:46.074Z,20.3
2019-03-22T11:44:49.079Z,20.4
2019-03-22T11:45:52.082Z,20.6
2019-03-22T11:46:55.077Z,20.7
2019-03-22T11:47:58.075Z,20.8
2019-03-22T11:49:01.076Z,20.7
2019-03-22T11:50:04.096Z,20.8
2019-03-22T11:51:07.087Z,20.6
2019-03-22T11:52:10.081Z,20.4
2019-03-22T11:53:13.081Z,20.2
2019-03-22T11:54:16.074Z,20.3
2019-03-22T11:55:19.087Z,20.3
2019-03-22T11:56:22.080Z,20.1
2019-03-22T11:57:25.096Z,20.1
2019-03-22T11:58:28.076Z,20.2
2019-03-22T11:59:31.106Z,20.3
2019-03-22T12:00:34.105Z,20.3
2019-03-22T12:01:37.090Z,20.5
2019-03-22T12:02:40.092Z,20.6
2019-03-22T12:03:43.097Z,20.5
2019-03-22T12:04:46.076Z,20.6
2019-03-22T12:05:49.137Z,20.5
2019-03-22T12:06:52.085Z,20.4
2019-03-22T12:07:55.084Z,20.3
2019-03-22T12:08:58.097Z,20.2
2019-03-22T12:10:01.091Z,20.3
2019-03-22T12:11:04.086Z,20.3
2019-03-22T12:12:07.096Z,20.3
2019-03-22T12:13:10.090Z,20.4
2019-03-22T12:14:13.097Z,20.4
2019-03-22T12:15:16.091Z,20.5
2019-03-22T12:16:19.085Z,20.6
2019-03-22T12:17:22.094Z,20.4
2019-03-22T12:18:25.094Z,20.5
2019-03-22T12:19:28.094Z,20.6
2019-03-22T12:20:31.130Z,20.6
2019-03-22T12:21:34.105Z,20.5
2019-03-22T12:22:38.482Z,20.3
2019-03-22T12:23:40.117Z,20.3
2019-03-22T12:24:43.105Z,20.3
2019-03-22T12:25:46.094Z,20.4
2019-03-22T12:26:49.087Z,20.4
2019-03-22T12:27:52.137Z,20.4
2019-03-22T12:28:55.107Z,20.5
2019-03-22T12:29:58.125Z,20.6
2019-03-22T12:31:01.120Z,20.6
2019-03-22T12:32:04.092Z,20.5
2019-03-22T12:33:07.096Z,20.6
2019-03-22T12:34:10.098Z,20.6
2019-03-22T12:35:13.106Z,20.5
2019-03-22T12:36:16.098Z,20.6
2019-03-22T12:37:19.116Z,20.7
2019-03-22T12:38:22.091Z,20.9
2019-03-22T12:39:25.101Z,21.2
2019-03-22T12:40:28.122Z,21.3
2019-03-22T12:41:31.110Z,21.1
2019-03-22T12:42:34.098Z,21.0
2019-03-22T12:43:37.112Z,21.1
2019-03-22T12:44:40.110Z,21.1
2019-03-22T12:45:43.107Z,21.2
2019-03-22T12:46:46.095Z,21.1
2019-03-22T12:47:49.110Z,21.0
2019-03-22T12:48:52.115Z,21.1
2019-03-22T12:49:55.110Z,21.0
2019-03-22T12:50:58.115Z,20.9
2019-03-22T12:52:01.096Z,20.8
2019-03-22T12:53:04.107Z,20.6
2019-03-22T12:54:07.120Z,20.6
2019-03-22T12:55:10.113Z,20.6
2019-03-22T12:56:13.132Z,20.7
2019-03-22T12:57:16.112Z,20.6
2019-03-22T12:58:19.111Z,20.5
2019-03-22T12:59:22.183Z,20.6
2019-03-22T13:00:25.143Z,20.6
2019-03-22T13:01:28.134Z,20.4
2019-03-22T13:02:31.114Z,20.4
2019-03-22T13:03:34.245Z,20.4
2019-03-22T13:04:36.618Z,20.5
2019-03-22T13:05:39.617Z,20.5
2019-03-22T13:06:42.603Z,20.5
2019-03-22T13:07:45.615Z,20.7
2019-03-22T13:08:48.617Z,20.7
2019-03-22T13:09:51.607Z,20.7
2019-03-22T13:10:54.629Z,20.7
2019-03-22T13:11:57.624Z,20.6
2019-03-22T13:13:00.645Z,20.6
2019-03-22T13:14:03.624Z,20.7
2019-03-22T13:15:06.623Z,20.7
2019-03-22T13:16:09.627Z,20.8
2019-03-22T13:17:12.622Z,20.8
2019-03-22T13:18:15.642Z,20.8
2019-03-22T13:19:18.616Z,20.7
2019-03-22T13:20:21.638Z,20.7
2019-03-22T13:21:24.628Z,20.5
2019-03-22T13:22:27.625Z,20.5
2019-03-22T13:23:30.625Z,20.4
2019-03-22T13:24:33.624Z,20.3
2019-03-22T13:25:36.622Z,20.2
2019-03-22T13:26:39.645Z,20.3
2019-03-22T13:27:42.716Z,20.2
2019-03-22T13:28:45.626Z,20.3
2019-03-22T13:29:48.632Z,20.3
2019-03-22T13:30:51.658Z,20.3
2019-03-22T13:31:54.624Z,20.4
2019-03-22T13:32:57.616Z,20.4
2019-03-22T13:34:00.623Z,20.4
2019-03-22T13:35:03.627Z,20.5
2019-03-22T13:36:06.625Z,20.7
2019-03-22T13:37:09.626Z,20.5
2019-03-22T13:38:12.719Z,20.5
2019-03-22T13:39:15.631Z,20.5
2019-03-22T13:40:18.634Z,20.5
2019-03-22T13:41:21.643Z,20.5
2019-03-22T13:42:24.627Z,20.5
2019-03-22T13:43:27.633Z,20.5
2019-03-22T13:44:30.622Z,20.6
2019-03-22T13:45:33.632Z,20.5
2019-03-22T13:46:40.132Z,20.5
2019-03-22T13:47:39.639Z,20.5
2019-03-22T13:48:42.627Z,20.5
2019-03-22T13:49:45.642Z,20.6
2019-03-22T13:50:48.642Z,20.5
2019-03-22T13:51:51.642Z,20.5
2019-03-22T13:52:54.632Z,20.4
2019-03-22T13:53:57.633Z,20.4
2019-03-22T13:55:00.647Z,20.4
2019-03-22T13:56:03.646Z,20.4
2019-03-22T13:57:06.659Z,20.2
2019-03-22T13:58:09.646Z,20.3
2019-03-22T13:59:12.649Z,20.3
2019-03-22T14:00:15.634Z,20.4
2019-03-22T14:01:18.666Z,20.4
2019-03-22T14:02:22.941Z,20.3
2019-03-22T14:03:24.647Z,20.3
2019-03-22T14:04:27.628Z,20.4
2019-03-22T14:05:30.647Z,20.4
2019-03-22T14:06:33.641Z,20.4
2019-03-22T14:07:36.632Z,20.4
2019-03-22T14:08:39.643Z,20.5
2019-03-22T14:09:42.646Z,20.5
2019-03-22T14:10:45.653Z,20.4
2019-03-22T14:11:48.654Z,20.5
2019-03-22T14:12:51.654Z,20.6
2019-03-22T14:13:54.641Z,20.5
2019-03-22T14:14:57.648Z,20.7
2019-03-22T14:16:00.664Z,20.6
2019-03-22T14:17:03.653Z,20.5
2019-03-22T14:18:06.655Z,20.5
2019-03-22T14:19:09.670Z,20.4
2019-03-22T14:20:12.641Z,20.4
2019-03-22T14:21:15.651Z,20.3
2019-03-22T14:22:18.677Z,20.4
2019-03-22T14:23:21.654Z,20.4
2019-03-22T14:24:24.658Z,20.4
2019-03-22T14:25:27.654Z,20.4
2019-03-22T14:26:30.672Z,20.3
2019-03-22T14:27:33.646Z,20.3
2019-03-22T14:28:36.653Z,20.2
2019-03-22T14:29:39.655Z,20.3
2019-03-22T14:30:42.653Z,20.4
2019-03-22T14:31:45.669Z,20.5
2019-03-22T14:32:48.657Z,20.5
2019-03-22T14:33:51.678Z,20.4
2019-03-22T14:34:54.654Z,20.5
2019-03-22T14:35:57.659Z,20.5
2019-03-22T14:37:00.663Z,20.5
2019-03-22T14:38:03.648Z,20.5
2019-03-22T14:39:06.663Z,20.5
2019-03-22T14:40:15.407Z,20.5
2019-03-22T14:41:12.650Z,20.4
2019-03-22T14:42:15.657Z,20.5
2019-03-22T14:43:18.664Z,20.4
2019-03-22T14:44:25.327Z,20.4
2019-03-22T14:45:24.662Z,20.5
2019-03-22T14:46:27.667Z,20.4
2019-03-22T14:47:30.659Z,20.3
2019-03-22T14:48:33.673Z,20.2
2019-03-22T14:49:36.658Z,20.2
2019-03-22T14:50:40.666Z,20.2
2019-03-22T14:51:43.679Z,20.3
2019-03-22T14:52:46.683Z,20.3
2019-03-22T14:53:49.697Z,20.3
2019-03-22T14:54:52.661Z,20.3
2019-03-22T14:55:55.663Z,20.3
2019-03-22T14:56:58.653Z,20.3
2019-03-22T14:58:01.667Z,20.3
2019-03-22T14:59:04.665Z,20.4
2019-03-22T15:00:07.674Z,20.4
2019-03-22T15:01:10.668Z,20.4
2019-03-22T15:02:13.665Z,20.4
2019-03-22T15:03:22.503Z,20.4
2019-03-22T15:04:19.687Z,20.4
2019-03-22T15:05:22.686Z,20.4
2019-03-22T15:06:25.668Z,20.4
2019-03-22T15:07:28.666Z,20.5
2019-03-22T15:08:31.682Z,20.5
2019-03-22T15:09:34.699Z,20.5
2019-03-22T15:10:37.677Z,20.5
2019-03-22T15:11:40.677Z,20.4
2019-03-22T15:12:43.675Z,20.5
2019-03-22T15:13:46.675Z,20.5
2019-03-22T15:14:49.681Z,20.5
2019-03-22T15:15:52.669Z,20.5
2019-03-22T15:16:55.678Z,20.4
2019-03-22T15:17:58.675Z,20.5
2019-03-22T15:19:01.678Z,20.5
2019-03-22T15:20:04.701Z,20.4
2019-03-22T15:21:07.674Z,20.4
2019-03-22T15:22:10.720Z,20.3
2019-03-22T15:23:13.681Z,20.4
2019-03-22T15:24:16.679Z,20.3
2019-03-22T15:25:19.674Z,20.3
2019-03-22T15:26:22.680Z,20.2
2019-03-22T15:27:26.681Z,20.2
2019-03-22T15:28:29.684Z,20.2
2019-03-22T15:29:32.681Z,20.3
2019-03-22T15:30:35.710Z,20.2
2019-03-22T15:31:38.686Z,20.2
2019-03-22T15:32:41.695Z,20.3
2019-03-22T15:33:44.725Z,20.2
2019-03-22T15:34:47.686Z,20.2
2019-03-22T15:35:50.721Z,20.3
2019-03-22T15:36:53.700Z,20.3
2019-03-22T15:37:56.698Z,20.3
2019-03-22T15:38:59.761Z,20.2
2019-03-22T15:40:02.702Z,20.3
2019-03-22T15:41:05.691Z,20.3
2019-03-22T15:42:08.691Z,20.2
2019-03-22T15:43:11.691Z,20.2
2019-03-22T15:44:14.791Z,20.4
